Rochester, NY

12:56 PM EDT on May 22, 2015 (GMT -0400)
Dansville Municipal | | Change Station
CLOSE
Current Station
Airport
Location: Dansville,
Elevation: 659 ft
Nearby Weather Stations
Active Advisory: Frost Advisory Active Notice: Public Information Statement

Elev 659 ft 42.57 °N, 77.71 °W | Updated 1 hour ago

Mostly Cloudy
Mostly Cloudy
59 °F
Feels Like 59 °F
N
16
Wind Variable Wind from NW
Gusts 24 mph

Today
High -- | Low -- °F
--% Chance of Precip.
Yesterday
High -- | Low -- °F
Precip. -- in
5:40 AM 8:34 PM
Waxing Crescent, 22% visible
Pressure 30.05 in
Visibility 10.0 miles
Clouds Few 6000 ft
Dew Point 35 °F
Humidity 41%
Rainfall 0.00 in
Snow Depth Not available.
UV 10 out of 12
Pollen 9.20 out of 12
Air Quality Not available.
Flu Activity Widespread
METAR KDSV 221554Z AUTO 31014G21KT 10SM FEW060 15/02 A3003 RMK AO2 SLP176 T01500017

More Conditions Fewer Conditions

Pressure 30.05 in
Visibility 10.0 miles
Clouds Few 6000 ft
Dew Point 35 °F
Humidity 41%
Rainfall 0.00 in
Snow Depth Not available.
UV 10 out of 12
Pollen 9.20 out of 12
Air Quality Not available.
Flu Activity Widespread
METAR KDSV 221554Z AUTO 31014G21KT 10SM FEW060 15/02 A3003 RMK AO2 SLP176 T01500017

More Conditions Fewer Conditions

10-Day Weather Forecast

Almanac

Astronomy

May. 22, 2015 Rise Set
Actual Time
Civil Twilight
Nautical Twilight
Astronomical Twilight
Moon
Length of Visible Light
Length of Day
Tomorrow will be .
, % of the Moon is Illuminated

Today's Extremes

State Highs State Lows

Community

WunderPhotos

Upload Photos

1,823,263 photos uploaded!

WunderBlogs® & News

Nearby

Air Quality

  Air Quality AQ Index Pollutant
Not available.

Snow Depth

Station Depth Elevation

Earthquake Activity

City Distance Mag. Time & Date
Minimum magnitude displayed is 2.5.

Coastal Water Temperatures

Place Temperature

Stations

Nearby Weather Stations

Station Location Temp. Windchill Dew Point Humidity Wind Precip. Elev Updated Type
                   
Frost Advisory
Statement as of 10:42 AM EDT on May 22, 2015

... Frost advisory remains in effect from midnight tonight to 9 am
EDT Saturday...

* locations... Niagara... Orleans... Monroe... Wayne... northern
Erie... Genesee... and Ontario counties.

* Timing... from midnight tonight through late Saturday morning.

* Temperatures... in the mid 30s.

* Impacts... areas of frost will result in damage to tender
vegetation unless protective measures are taken.

Precautionary/preparedness actions...

A frost advisory is issued when frost is expected to develop
during the growing season. If you are in the advisory area you
should take steps to protect tender vegetation. Also... potted
plants normally left outdoors should be covered or brought inside
away from the cold.



Tma